This is the latest recevied weather packets stored in our database for station/object SV2BBO-14. If no packets are shown the sender has not sent any weather packets the latest 1 day(s).
| Time | Temp. | Humidity | Pressure | Rain* | Wind** | Luminosity | Snow |
|---|---|---|---|---|---|---|---|
| 1778095210 | 17.22° C | 75% | 1017.1 hPa | - | - | - | - |
| 1778088004 | 18.89° C | 73% | 1016.1 hPa | - | - | - | - |
| 1778087103 | 18.89° C | 73% | 1016 hPa | - | - | - | - |
| 1778083500 | 20° C | 70% | 1015.9 hPa | - | - | - | - |
| 1778079897 | 21.11° C | 65% | 1016 hPa | - | - | - | - |
| 1778078996 | 21.11° C | 68% | 1016.2 hPa | - | - | - | - |
| 1778078095 | 21.67° C | 69% | 1016.3 hPa | - | - | - | - |
| 1778076311 | 20.56° C | 68% | 1016.4 hPa | - | - | - | - |
| 1778075410 | 21.11° C | 69% | 1016.5 hPa | - | - | - | - |
| 1778072708 | 21.11° C | 68% | 1016.7 hPa | - | - | - | - |
| 1778071807 | 21.11° C | 67% | 1016.9 hPa | - | - | - | - |
| 1778063700 | 21.11° C | 64% | 1017.7 hPa | - | - | - | - |
| 1778060998 | 21.67° C | 59% | 1017.8 hPa | - | - | - | - |
| 1778057395 | 22.22° C | 59% | 1017.8 hPa | - | - | - | - |
| 1778056493 | 22.78° C | 59% | 1017.7 hPa | - | - | - | - |
| 1778055611 | 22.22° C | 57% | 1017.6 hPa | - | - | - | - |
| 1778053810 | 21.67° C | 59% | 1017.6 hPa | - | - | - | - |
| 1778052909 | 21.11° C | 60% | 1017.6 hPa | - | - | - | - |
| 1778052008 | 20.56° C | 62% | 1017.5 hPa | - | - | - | - |
| 1778050207 | 19.44° C | 62% | 1017.5 hPa | - | - | - | - |
| 1778049306 | 18.89° C | 63% | 1017.5 hPa | - | - | - | - |
| 1778045703 | 18.89° C | 66% | 1017.4 hPa | - | - | - | - |
| 1778042100 | 18.89° C | 71% | 1017 hPa | - | - | - | - |
| 1778041199 | 15° C | 77% | 1017 hPa | - | - | - | - |
| 1778040298 | 14.44° C | 77% | 1017 hPa | - | - | - | - |
* Rain since midnight (hover to see other rain measurements)
** Current wind speed in m/s (hover to see current wind gust speed)